LFST METAR and TAF | Updated Today

LFST METAR

Strasbourg Airport

Observation time: 24 min. ago

LFST 062000Z AUTO 31002KT 9999 BKN056 13/09 Q1030 NOSIG

Need help? Read our tutorial on how to read METARs or read the parsed version below.

Strasbourg Airport (LFST) METAR

  • Weather conditions on Thu, 06 Oct 2022 20:00:00 +0000 (24 min. ago):
  • Present conditions: Dry
  • Clouds: Broken sky at 1707 meters
  • Visibility: Greater than 10 km
  • Wind: 310 degrees at 2 knots
  • Temperature: 13 celsius
  • Dew point: 9 celsius
  • Pressure: 1030 millibars
  • Remarks: None


Useful to know...

LFST TAF

Strasbourg Airport

TAF LFST 061700Z 0618/0718 32004KT 9999 FEW035
Observation time: 3:24 hr. ago
Need help? Read our tutorial on how to read TAFs or read the parsed version below.

Parsed version of TAF for Strasbourg Airport (LFST)

  • From 06 October at 18:00 UTC, to day 07 of the month at 18:00 UTC
  • Clouds: A few at 1067 meters
  • Visibility: Greater than 10 km
  • Wind: 320 degrees at 4